createdAt,value
2018-11-29T00:01:33.721Z,39.99
2018-11-29T00:04:01.505Z,39.69
2018-11-29T00:06:29.349Z,39.87
2018-11-29T00:08:56.178Z,39.69
2018-11-29T00:11:24.024Z,39.74
2018-11-29T00:13:51.813Z,40.03
2018-11-29T00:16:18.738Z,39.67
2018-11-29T00:18:46.440Z,39.83
2018-11-29T00:21:14.369Z,39.87
2018-11-29T00:23:42.830Z,39.83
2018-11-29T00:26:10.601Z,39.75
2018-11-29T00:28:37.450Z,40.40
2018-11-29T00:31:04.327Z,40.28
2018-11-29T00:33:32.043Z,39.85
2018-11-29T00:36:00.601Z,39.81
2018-11-29T00:38:28.232Z,39.88
2018-11-29T00:40:55.062Z,40.04
2018-11-29T00:43:21.883Z,39.80
2018-11-29T00:45:48.732Z,39.92
2018-11-29T00:48:15.604Z,39.61
2018-11-29T00:50:43.496Z,39.70
2018-11-29T00:53:10.349Z,39.67
2018-11-29T00:55:37.167Z,39.82
2018-11-29T00:58:04.018Z,40.15
2018-11-29T01:00:31.666Z,39.66
2018-11-29T01:02:58.496Z,40.19
2018-11-29T01:05:25.337Z,39.90
2018-11-29T01:07:52.155Z,39.99
2018-11-29T01:10:19.297Z,40.32
2018-11-29T01:12:46.326Z,39.64
2018-11-29T01:15:14.124Z,39.69
2018-11-29T01:17:40.937Z,39.80
2018-11-29T01:20:09.174Z,40.20
2018-11-29T01:22:36.016Z,39.80
2018-11-29T01:25:03.035Z,39.63
2018-11-29T01:27:30.035Z,39.58
2018-11-29T01:29:57.794Z,39.75
2018-11-29T01:32:25.607Z,39.69
2018-11-29T01:34:52.448Z,39.59
2018-11-29T01:37:19.318Z,39.55
2018-11-29T01:39:46.143Z,39.73
2018-11-29T01:42:16.873Z,40.03
2018-11-29T01:44:43.907Z,39.45
2018-11-29T01:47:10.789Z,39.85
2018-11-29T01:49:37.621Z,39.77
2018-11-29T01:52:05.324Z,39.78
2018-11-29T01:54:32.149Z,39.64
2018-11-29T01:56:59.867Z,39.34
2018-11-29T01:59:27.677Z,39.38
2018-11-29T02:01:55.441Z,39.33
2018-11-29T02:04:22.274Z,39.24
2018-11-29T02:06:50.049Z,39.28
2018-11-29T02:09:16.886Z,39.35
2018-11-29T02:11:44.645Z,39.24
2018-11-29T02:14:13.188Z,39.67
2018-11-29T02:16:41.007Z,39.31
2018-11-29T02:19:07.841Z,39.61
2018-11-29T02:21:34.887Z,39.26
2018-11-29T02:24:01.796Z,39.51
2018-11-29T02:26:29.601Z,38.95
2018-11-29T02:28:57.239Z,39.31
2018-11-29T02:31:24.151Z,39.13
2018-11-29T02:33:51.834Z,39.10
2018-11-29T02:36:19.659Z,39.98
2018-11-29T02:38:46.742Z,39.19
2018-11-29T02:41:14.308Z,39.21
2018-11-29T02:43:43.049Z,38.72
2018-11-29T02:46:10.902Z,39.09
2018-11-29T02:48:37.750Z,39.05
2018-11-29T02:51:05.630Z,38.82
2018-11-29T02:53:33.299Z,39.15
2018-11-29T02:56:01.060Z,39.17
2018-11-29T02:58:27.895Z,38.95
2018-11-29T03:00:55.668Z,39.05
2018-11-29T03:03:23.655Z,39.23
2018-11-29T03:05:51.317Z,39.13
2018-11-29T03:08:19.123Z,39.59
2018-11-29T03:10:46.782Z,39.00
2018-11-29T03:13:14.336Z,39.07
2018-11-29T03:15:41.186Z,39.01
2018-11-29T03:18:08.038Z,38.75
2018-11-29T03:20:34.856Z,39.28
2018-11-29T03:23:02.483Z,38.82
2018-11-29T03:25:30.302Z,38.95
2018-11-29T03:27:57.136Z,39.47
2018-11-29T03:30:23.969Z,38.79
2018-11-29T03:32:50.818Z,38.94
2018-11-29T03:35:17.664Z,38.81
2018-11-29T03:37:44.495Z,39.43
2018-11-29T03:40:13.979Z,39.51
2018-11-29T03:42:40.872Z,39.03
2018-11-29T03:45:09.464Z,39.08
2018-11-29T03:47:36.464Z,38.94
2018-11-29T03:50:05.629Z,38.92
2018-11-29T03:52:39.232Z,39.05
2018-11-29T03:55:06.549Z,38.74
2018-11-29T03:57:33.389Z,38.74
2018-11-29T04:00:00.261Z,38.97
2018-11-29T04:02:27.140Z,38.67
2018-11-29T04:04:54.923Z,38.77
2018-11-29T04:07:21.767Z,38.57
2018-11-29T04:09:48.607Z,38.81
2018-11-29T04:12:16.369Z,38.45
2018-11-29T04:14:43.642Z,38.81
2018-11-29T04:17:10.480Z,38.99
2018-11-29T04:19:38.308Z,38.54
2018-11-29T04:22:06.048Z,38.79
2018-11-29T04:24:32.895Z,38.54
2018-11-29T04:27:00.551Z,38.51
2018-11-29T04:29:28.223Z,38.82
2018-11-29T04:31:55.070Z,38.70
2018-11-29T04:34:21.902Z,38.53
2018-11-29T04:36:48.797Z,38.67
2018-11-29T04:39:16.501Z,38.45
2018-11-29T04:41:44.351Z,38.73
2018-11-29T04:44:12.985Z,38.42
2018-11-29T04:46:41.337Z,38.59
2018-11-29T04:49:08.204Z,39.07
2018-11-29T04:51:35.928Z,38.36
2018-11-29T04:54:03.747Z,38.64
2018-11-29T04:56:31.476Z,38.51
2018-11-29T04:58:58.323Z,38.42
2018-11-29T05:01:25.159Z,38.43
2018-11-29T05:03:52.114Z,38.21
2018-11-29T05:06:18.934Z,38.47
2018-11-29T05:08:45.784Z,38.26
2018-11-29T05:11:13.675Z,38.16
2018-11-29T05:13:41.519Z,38.09
2018-11-29T05:16:09.145Z,38.37
2018-11-29T05:18:36.826Z,38.17
2018-11-29T05:21:04.546Z,38.25
2018-11-29T05:23:31.400Z,38.15
2018-11-29T05:25:59.202Z,38.02
2018-11-29T05:28:26.860Z,38.01
2018-11-29T05:30:54.650Z,37.92
2018-11-29T05:33:22.488Z,38.08
2018-11-29T05:35:49.336Z,37.84
2018-11-29T05:38:16.443Z,38.04
2018-11-29T05:40:43.991Z,38.00
2018-11-29T05:43:11.795Z,37.87
2018-11-29T05:45:38.652Z,38.57
2018-11-29T05:50:56.527Z,38.05
2018-11-29T05:53:24.375Z,38.02
2018-11-29T05:55:52.157Z,38.07
2018-11-29T05:58:18.982Z,37.85
2018-11-29T06:00:46.611Z,37.65
2018-11-29T06:03:14.530Z,38.06
2018-11-29T06:05:41.357Z,37.97
2018-11-29T06:08:08.327Z,37.79
2018-11-29T06:10:35.162Z,37.81
2018-11-29T06:13:01.981Z,37.83
2018-11-29T06:15:28.849Z,37.56
2018-11-29T06:17:56.724Z,37.79
2018-11-29T06:20:23.586Z,38.12
2018-11-29T06:22:50.404Z,38.42
2018-11-29T06:25:18.145Z,37.95
2018-11-29T06:27:44.954Z,37.89
2018-11-29T06:30:14.088Z,37.56
2018-11-29T06:32:40.937Z,37.71
2018-11-29T06:35:08.607Z,37.59
2018-11-29T06:37:35.425Z,37.64
2018-11-29T06:40:02.484Z,37.41
2018-11-29T06:42:30.252Z,37.52
2018-11-29T06:44:57.117Z,37.72
2018-11-29T06:47:23.946Z,38.10
2018-11-29T06:49:51.716Z,37.54
2018-11-29T06:52:18.554Z,37.64
2018-11-29T06:54:45.364Z,37.56
2018-11-29T06:57:13.938Z,37.54
2018-11-29T06:59:41.635Z,37.69
2018-11-29T07:02:08.479Z,37.74
2018-11-29T07:04:35.362Z,37.11
2018-11-29T07:07:02.994Z,37.29
2018-11-29T07:09:29.847Z,37.40
2018-11-29T07:11:57.549Z,37.46
2018-11-29T07:14:24.359Z,37.35
2018-11-29T07:16:51.227Z,37.19
2018-11-29T07:19:18.974Z,37.38
2018-11-29T07:21:49.843Z,37.19
2018-11-29T07:24:16.675Z,37.40
2018-11-29T07:26:44.276Z,37.15
2018-11-29T07:29:11.221Z,37.20
2018-11-29T07:31:38.084Z,37.51
2018-11-29T07:34:05.104Z,37.24
2018-11-29T07:36:33.002Z,37.85
2018-11-29T07:38:59.899Z,37.32
2018-11-29T07:41:26.728Z,37.48
2018-11-29T07:43:53.581Z,37.38
2018-11-29T07:46:20.393Z,37.20
2018-11-29T07:48:47.186Z,37.27
2018-11-29T07:51:14.156Z,37.26
2018-11-29T07:53:41.969Z,37.20
2018-11-29T07:56:08.840Z,37.43
2018-11-29T07:58:36.522Z,37.65
2018-11-29T08:01:04.881Z,37.46
2018-11-29T08:03:31.695Z,37.23
2018-11-29T08:05:58.593Z,37.12
2018-11-29T08:08:25.528Z,37.10
2018-11-29T08:10:52.360Z,37.47
2018-11-29T08:13:19.329Z,37.12
2018-11-29T08:15:46.166Z,37.46
2018-11-29T08:18:13.998Z,37.14
2018-11-29T08:20:40.892Z,36.74
2018-11-29T08:23:07.973Z,36.82
2018-11-29T08:25:34.853Z,36.86
2018-11-29T08:28:01.673Z,36.86
2018-11-29T08:30:28.505Z,36.81
2018-11-29T08:32:55.437Z,36.82
2018-11-29T08:35:22.265Z,36.88
2018-11-29T08:37:49.285Z,36.86
2018-11-29T08:40:18.750Z,36.94
2018-11-29T08:42:45.668Z,36.74
2018-11-29T08:45:13.572Z,37.06
2018-11-29T08:47:40.449Z,36.89
2018-11-29T08:50:11.495Z,36.69
2018-11-29T08:52:39.532Z,36.60
2018-11-29T08:55:08.961Z,37.17
2018-11-29T08:57:36.845Z,36.72
2018-11-29T09:00:05.232Z,36.68
2018-11-29T09:02:32.104Z,36.86
2018-11-29T09:04:59.134Z,36.73
2018-11-29T09:07:25.956Z,36.51
2018-11-29T09:09:52.837Z,36.87
2018-11-29T09:12:19.643Z,36.59
2018-11-29T09:14:47.344Z,36.64
2018-11-29T09:17:15.295Z,36.99
2018-11-29T09:19:42.672Z,36.82
2018-11-29T09:22:10.639Z,36.58
2018-11-29T09:24:37.480Z,36.66
2018-11-29T09:27:04.498Z,36.86
2018-11-29T09:29:31.460Z,36.79
2018-11-29T09:31:58.381Z,36.43
2018-11-29T09:34:25.406Z,37.10
2018-11-29T09:36:52.875Z,36.68
2018-11-29T09:39:20.716Z,36.74
2018-11-29T09:41:47.719Z,36.71
2018-11-29T09:44:14.566Z,36.55
2018-11-29T09:46:41.463Z,36.61
2018-11-29T09:49:08.573Z,36.56
2018-11-29T09:51:35.529Z,36.60
2018-11-29T09:54:03.433Z,36.35
2018-11-29T09:56:31.304Z,36.53
2018-11-29T09:58:58.254Z,36.55
2018-11-29T10:01:27.082Z,36.26
2018-11-29T10:03:53.911Z,36.25
2018-11-29T10:06:21.796Z,36.33
2018-11-29T10:08:48.685Z,36.21
2018-11-29T10:11:16.706Z,36.28
2018-11-29T10:13:46.306Z,36.27
2018-11-29T10:16:13.137Z,36.33
2018-11-29T10:18:40.967Z,36.23
2018-11-29T10:21:08.117Z,36.23
2018-11-29T10:23:35.243Z,36.69
2018-11-29T10:26:02.150Z,36.17
2018-11-29T10:28:29.131Z,36.51
2018-11-29T10:30:56.774Z,36.15
2018-11-29T10:33:23.637Z,36.54
2018-11-29T10:35:50.447Z,36.47
2018-11-29T10:38:17.322Z,36.33
2018-11-29T10:40:44.180Z,36.30
2018-11-29T10:43:11.179Z,36.23
2018-11-29T10:45:38.101Z,35.77
2018-11-29T10:48:07.347Z,36.13
2018-11-29T10:50:34.209Z,36.01
2018-11-29T10:53:02.273Z,35.98
2018-11-29T10:55:29.115Z,35.99
2018-11-29T10:57:55.944Z,35.98
2018-11-29T11:00:28.896Z,35.94
2018-11-29T11:03:32.401Z,35.97
2018-11-29T11:05:59.375Z,36.04
2018-11-29T11:08:26.322Z,36.21
2018-11-29T11:10:54.192Z,35.83
2018-11-29T11:13:21.093Z,35.82
2018-11-29T11:15:47.981Z,36.05
2018-11-29T11:18:15.162Z,35.77
2018-11-29T11:20:43.034Z,36.05
2018-11-29T11:23:10.734Z,36.17
2018-11-29T11:25:37.691Z,36.02
2018-11-29T11:28:05.454Z,35.93
2018-11-29T11:30:33.186Z,35.97
2018-11-29T11:33:00.024Z,35.68
2018-11-29T11:35:29.866Z,36.04
2018-11-29T11:37:56.691Z,35.96
2018-11-29T11:40:24.398Z,35.76
2018-11-29T11:42:52.194Z,36.21
2018-11-29T11:45:19.494Z,36.08
2018-11-29T11:47:46.356Z,35.81
2018-11-29T11:50:14.565Z,35.94
2018-11-29T11:52:41.405Z,35.85
2018-11-29T11:55:08.627Z,35.89
2018-11-29T11:57:35.452Z,35.94
2018-11-29T12:00:02.313Z,35.81
2018-11-29T12:02:29.280Z,35.74
2018-11-29T12:04:56.094Z,35.90
2018-11-29T12:07:23.873Z,36.00
2018-11-29T12:09:51.689Z,36.32
2018-11-29T12:12:18.788Z,36.02
2018-11-29T12:14:46.489Z,35.92
2018-11-29T12:17:14.390Z,36.18
2018-11-29T12:19:42.900Z,36.05
2018-11-29T12:22:09.753Z,36.28
2018-11-29T12:24:36.747Z,36.21
2018-11-29T12:27:03.608Z,36.50
2018-11-29T12:29:31.264Z,36.09
2018-11-29T12:31:58.136Z,36.17
2018-11-29T12:34:25.006Z,36.08
2018-11-29T12:36:51.987Z,36.07
2018-11-29T12:39:18.836Z,36.64
2018-11-29T12:41:46.587Z,36.07
2018-11-29T12:44:14.488Z,36.10
2018-11-29T12:46:41.350Z,36.17
2018-11-29T12:49:08.180Z,36.13
2018-11-29T12:51:35.037Z,36.04
2018-11-29T12:54:01.989Z,36.14
2018-11-29T12:56:28.884Z,36.12
2018-11-29T12:58:55.797Z,36.89
2018-11-29T13:01:22.632Z,36.38
2018-11-29T13:03:50.284Z,36.06
2018-11-29T13:06:17.131Z,36.15
2018-11-29T13:08:45.393Z,36.27
2018-11-29T13:11:12.848Z,36.47
2018-11-29T13:13:39.776Z,36.23
2018-11-29T13:16:06.632Z,36.24
2018-11-29T13:18:33.505Z,36.48
2018-11-29T13:21:01.639Z,36.30
2018-11-29T13:23:28.591Z,36.04
2018-11-29T13:25:55.459Z,35.84
2018-11-29T13:28:22.301Z,36.23
2018-11-29T13:30:49.263Z,36.35
2018-11-29T13:33:16.586Z,35.69
2018-11-29T13:35:44.001Z,34.78
2018-11-29T13:38:13.546Z,35.26
2018-11-29T13:40:41.287Z,35.17
2018-11-29T13:43:08.162Z,35.07
2018-11-29T13:45:35.079Z,35.22
2018-11-29T13:48:07.868Z,35.32
2018-11-29T13:50:34.902Z,34.87
2018-11-29T13:53:01.871Z,35.46
2018-11-29T13:55:28.861Z,35.02
2018-11-29T13:57:55.750Z,35.29
2018-11-29T14:00:22.911Z,35.16
2018-11-29T14:02:57.282Z,35.69
2018-11-29T14:05:24.149Z,35.44
2018-11-29T14:07:51.003Z,35.25
2018-11-29T14:10:19.230Z,35.81
2018-11-29T14:12:46.548Z,35.46
2018-11-29T14:15:17.857Z,35.66
2018-11-29T14:17:44.760Z,35.58
2018-11-29T14:20:13.655Z,35.74
2018-11-29T14:22:40.512Z,35.77
2018-11-29T14:25:08.078Z,35.63
2018-11-29T14:27:34.899Z,35.76
2018-11-29T14:30:01.801Z,35.96
2018-11-29T14:32:28.628Z,35.57
2018-11-29T14:34:55.527Z,35.70
2018-11-29T14:37:22.422Z,35.74
2018-11-29T14:39:49.351Z,35.82
2018-11-29T14:42:16.170Z,35.48
2018-11-29T14:44:44.947Z,35.92
2018-11-29T14:47:11.813Z,35.75
2018-11-29T14:49:39.538Z,35.79
2018-11-29T14:52:08.070Z,35.82
2018-11-29T14:54:33.473Z,35.80
2018-11-29T14:57:01.239Z,35.84
2018-11-29T14:59:29.038Z,35.92
2018-11-29T15:01:55.868Z,35.78
2018-11-29T15:04:22.916Z,35.92
2018-11-29T15:06:49.741Z,36.05
2018-11-29T15:09:16.623Z,36.15
2018-11-29T15:11:44.244Z,36.23
2018-11-29T15:14:11.110Z,36.39
2018-11-29T15:16:38.057Z,36.22
2018-11-29T15:19:05.799Z,36.06
2018-11-29T15:21:32.636Z,36.33
2018-11-29T15:24:00.408Z,36.53
2018-11-29T15:26:28.302Z,36.15
2018-11-29T15:28:56.120Z,36.33
2018-11-29T15:31:22.947Z,36.11
2018-11-29T15:33:49.774Z,36.00
2018-11-29T15:36:16.610Z,36.12
2018-11-29T15:38:43.851Z,36.29
2018-11-29T15:41:11.693Z,36.56
2018-11-29T15:43:39.395Z,36.16
2018-11-29T15:46:06.228Z,36.02
2018-11-29T15:48:33.945Z,36.15
2018-11-29T15:51:01.686Z,36.48
2018-11-29T15:53:28.645Z,36.33
2018-11-29T15:55:55.497Z,36.13
2018-11-29T15:58:22.379Z,36.53
2018-11-29T16:00:49.245Z,36.12
2018-11-29T16:03:16.998Z,36.12
2018-11-29T16:05:44.154Z,36.28
2018-11-29T16:08:11.021Z,36.33
2018-11-29T16:10:37.857Z,36.10
2018-11-29T16:13:05.654Z,36.08
2018-11-29T16:15:32.531Z,36.04
2018-11-29T16:17:59.401Z,35.99
2018-11-29T16:20:26.730Z,35.87
2018-11-29T16:22:53.615Z,36.30
2018-11-29T16:25:20.470Z,36.08
2018-11-29T16:27:47.359Z,36.17
2018-11-29T16:30:16.597Z,36.12
2018-11-29T16:32:44.086Z,36.04
2018-11-29T16:35:11.935Z,36.55
2018-11-29T16:37:38.826Z,36.14
2018-11-29T16:40:06.551Z,35.95
2018-11-29T16:42:33.405Z,36.05
2018-11-29T16:45:01.235Z,36.25
2018-11-29T16:47:29.067Z,35.83
2018-11-29T16:49:56.951Z,36.25
2018-11-29T16:52:23.759Z,36.53
2018-11-29T16:54:50.627Z,36.39
2018-11-29T16:57:17.565Z,36.07
2018-11-29T16:59:44.407Z,36.46
2018-11-29T17:02:11.285Z,36.06
2018-11-29T17:04:38.246Z,36.23
2018-11-29T17:07:05.392Z,36.12
2018-11-29T17:09:32.470Z,36.23
2018-11-29T17:12:00.316Z,35.92
2018-11-29T17:14:26.260Z,35.92
2018-11-29T17:16:54.011Z,35.94
2018-11-29T17:19:20.839Z,35.66
2018-11-29T17:21:47.724Z,36.18
2018-11-29T17:24:14.564Z,35.61
2018-11-29T17:26:41.460Z,35.64
2018-11-29T17:29:10.775Z,35.60
2018-11-29T17:31:37.604Z,35.91
2018-11-29T17:34:05.238Z,35.42
2018-11-29T17:36:32.063Z,35.63
2018-11-29T17:38:59.313Z,35.61
2018-11-29T17:41:26.150Z,35.60
2018-11-29T17:43:52.977Z,35.57
2018-11-29T17:46:19.809Z,35.66
2018-11-29T17:48:46.623Z,35.41
2018-11-29T17:51:14.416Z,35.41
2018-11-29T17:53:41.248Z,35.47
2018-11-29T17:56:08.276Z,35.48
2018-11-29T17:58:35.096Z,35.48
2018-11-29T18:01:02.000Z,35.77
2018-11-29T18:03:28.769Z,35.60
2018-11-29T18:05:55.598Z,35.76
2018-11-29T18:08:22.426Z,35.66
2018-11-29T18:10:50.174Z,35.35
2018-11-29T18:13:17.831Z,35.50
2018-11-29T18:15:44.722Z,35.35
2018-11-29T18:18:13.123Z,35.57
2018-11-29T18:20:40.744Z,35.38
2018-11-29T18:23:08.038Z,35.43
2018-11-29T18:25:35.799Z,35.52
2018-11-29T18:28:02.629Z,35.40
2018-11-29T18:30:30.532Z,35.60
2018-11-29T18:32:57.557Z,35.79
2018-11-29T18:35:25.324Z,35.35
2018-11-29T18:37:53.088Z,35.19
2018-11-29T18:40:20.682Z,35.22
2018-11-29T18:42:48.204Z,35.07
2018-11-29T18:45:15.636Z,35.38
2018-11-29T18:47:44.389Z,35.28
2018-11-29T18:50:19.562Z,35.44
2018-11-29T18:52:47.249Z,35.45
2018-11-29T18:55:15.170Z,35.20
2018-11-29T18:57:43.639Z,35.22
2018-11-29T19:00:13.786Z,35.22
2018-11-29T19:02:40.593Z,35.16
2018-11-29T19:05:08.696Z,35.42
2018-11-29T19:07:36.565Z,35.57
2018-11-29T19:10:06.108Z,35.15
2018-11-29T19:12:33.013Z,35.19
2018-11-29T19:15:00.836Z,35.17
2018-11-29T19:17:27.714Z,34.97
2018-11-29T19:19:55.560Z,35.28
2018-11-29T19:22:23.301Z,34.76
2018-11-29T19:24:51.027Z,35.16
2018-11-29T19:27:18.835Z,35.26
2018-11-29T19:29:45.696Z,35.22
2018-11-29T19:32:14.139Z,35.02
2018-11-29T19:34:41.005Z,35.34
2018-11-29T19:37:07.886Z,35.01
2018-11-29T19:39:34.699Z,35.15
2018-11-29T19:42:02.468Z,34.77
2018-11-29T19:44:29.307Z,35.22
2018-11-29T19:46:56.142Z,34.86
2018-11-29T19:49:22.984Z,34.78
2018-11-29T19:51:49.807Z,34.82
2018-11-29T19:54:16.894Z,34.91
2018-11-29T19:56:44.551Z,34.96
2018-11-29T19:59:11.383Z,35.01
2018-11-29T20:01:39.460Z,34.80
2018-11-29T20:04:07.370Z,34.97
2018-11-29T20:06:35.196Z,35.04
2018-11-29T20:09:03.675Z,34.96
2018-11-29T20:11:31.454Z,34.92
2018-11-29T20:13:59.310Z,35.15
2018-11-29T20:16:26.141Z,34.95
2018-11-29T20:18:52.962Z,34.92
2018-11-29T20:21:20.724Z,35.05
2018-11-29T20:23:47.596Z,34.79
2018-11-29T20:26:14.474Z,35.05
2018-11-29T20:28:41.337Z,35.15
2018-11-29T20:31:08.226Z,34.99
2018-11-29T20:33:35.883Z,35.09
2018-11-29T20:36:02.855Z,34.93
2018-11-29T20:38:29.703Z,35.10
2018-11-29T20:40:56.907Z,35.25
2018-11-29T20:43:23.951Z,35.21
2018-11-29T20:45:51.668Z,35.04
2018-11-29T20:48:20.333Z,35.20
2018-11-29T20:50:47.479Z,35.02
2018-11-29T20:53:16.605Z,35.05
2018-11-29T20:55:44.513Z,35.00
2018-11-29T20:58:11.344Z,35.00
2018-11-29T21:00:40.422Z,35.00
2018-11-29T21:03:08.213Z,34.94
2018-11-29T21:05:36.935Z,35.17
2018-11-29T21:08:03.921Z,35.17
2018-11-29T21:10:30.758Z,35.06
2018-11-29T21:13:04.422Z,35.26
2018-11-29T21:15:31.267Z,34.99
2018-11-29T21:17:58.997Z,35.16
2018-11-29T21:20:25.895Z,35.54
2018-11-29T21:22:52.747Z,35.00
2018-11-29T21:25:20.514Z,35.25
2018-11-29T21:27:48.358Z,35.25
2018-11-29T21:30:15.630Z,35.25
2018-11-29T21:32:43.656Z,35.60
2018-11-29T21:35:11.163Z,35.28
2018-11-29T21:37:38.055Z,35.35
2018-11-29T21:40:37.820Z,35.47
2018-11-29T21:43:05.723Z,35.44
2018-11-29T21:45:33.477Z,35.39
2018-11-29T21:48:00.299Z,35.41
2018-11-29T21:50:27.212Z,35.56
2018-11-29T21:52:54.855Z,35.35
2018-11-29T21:55:21.696Z,35.68
2018-11-29T21:57:48.531Z,35.48
2018-11-29T22:00:16.507Z,35.30
2018-11-29T22:02:44.024Z,35.35
2018-11-29T22:05:10.898Z,35.66
2018-11-29T22:07:38.556Z,35.75
2018-11-29T22:10:06.329Z,35.61
2018-11-29T22:12:33.151Z,35.38
2018-11-29T22:15:00.796Z,35.26
2018-11-29T22:17:28.602Z,35.80
2018-11-29T22:19:55.424Z,35.33
2018-11-29T22:22:22.427Z,35.55
2018-11-29T22:24:49.246Z,35.91
2018-11-29T22:27:16.068Z,35.60
2018-11-29T22:29:43.865Z,35.84
2018-11-29T22:32:11.547Z,35.40
2018-11-29T22:34:39.144Z,35.74
2018-11-29T22:37:06.892Z,35.74
2018-11-29T22:39:34.237Z,35.36
2018-11-29T22:42:02.034Z,35.37
2018-11-29T22:44:29.803Z,35.47
2018-11-29T22:46:56.646Z,35.86
2018-11-29T22:49:24.330Z,35.92
2018-11-29T22:51:52.116Z,35.33
2018-11-29T22:54:19.013Z,35.56
2018-11-29T22:56:46.668Z,35.43
2018-11-29T22:59:14.532Z,35.59
2018-11-29T23:01:42.939Z,35.56
2018-11-29T23:04:09.761Z,35.49
2018-11-29T23:06:37.649Z,35.30
2018-11-29T23:09:06.936Z,35.40
2018-11-29T23:11:34.709Z,34.88
2018-11-29T23:14:02.547Z,35.08
2018-11-29T23:16:30.178Z,35.42
2018-11-29T23:18:57.854Z,35.55
2018-11-29T23:21:24.688Z,35.07
2018-11-29T23:23:52.462Z,35.26
2018-11-29T23:26:20.166Z,35.05
2018-11-29T23:28:46.984Z,35.22
2018-11-29T23:31:14.263Z,35.28
2018-11-29T23:33:41.107Z,35.35
2018-11-29T23:36:07.938Z,35.33
2018-11-29T23:38:35.734Z,35.23
2018-11-29T23:41:03.469Z,35.72
2018-11-29T23:43:30.312Z,35.51
2018-11-29T23:45:57.153Z,35.40
2018-11-29T23:48:24.010Z,35.63
2018-11-29T23:50:51.818Z,35.53
2018-11-29T23:53:18.657Z,35.48
2018-11-29T23:55:45.483Z,35.68
2018-11-29T23:58:13.099Z,35.66
